createdAt,value
2023-05-22T00:01:57.352Z,220.14
2023-05-22T00:04:31.028Z,229.56
2023-05-22T00:07:04.885Z,233.34
2023-05-22T00:09:39.447Z,239.75
2023-05-22T00:12:12.747Z,237.71
2023-05-22T00:14:46.002Z,231.49
2023-05-22T00:17:19.300Z,231.35
2023-05-22T00:19:54.000Z,230.04
2023-05-22T00:22:28.401Z,229.28
2023-05-22T00:25:03.300Z,222.40
2023-05-22T00:27:36.559Z,221.21
2023-05-22T00:30:11.244Z,219.61
2023-05-22T00:32:44.529Z,220.71
2023-05-22T00:35:17.803Z,220.35
2023-05-22T00:37:51.051Z,218.79
2023-05-22T00:40:26.208Z,220.57
2023-05-22T00:42:59.440Z,218.74
2023-05-22T00:45:33.625Z,217.71
2023-05-22T00:48:09.687Z,214.32
2023-05-22T00:50:43.133Z,213.78
2023-05-22T00:53:16.904Z,208.77
2023-05-22T00:55:52.714Z,210.27
2023-05-22T00:58:28.065Z,214.40
2023-05-22T01:01:01.924Z,209.47
2023-05-22T01:03:35.311Z,210.61
2023-05-22T01:06:08.776Z,214.88
2023-05-22T01:08:42.459Z,211.42
2023-05-22T01:11:24.410Z,201.53
2023-05-22T01:14:08.460Z,203.14
2023-05-22T01:16:52.902Z,208.39
2023-05-22T01:20:01.443Z,204.63
2023-05-22T01:22:58.632Z,197.22
2023-05-22T01:26:03.895Z,194.54
2023-05-22T01:29:04.310Z,207.03
2023-05-22T01:31:42.616Z,206.03
2023-05-22T01:34:20.037Z,206.10
2023-05-22T01:36:55.875Z,199.83
2023-05-22T01:39:30.210Z,200.52
2023-05-22T01:42:03.578Z,195.01
2023-05-22T01:44:36.745Z,190.02
2023-05-22T01:47:11.326Z,195.26
2023-05-22T01:49:45.002Z,197.31
2023-05-22T01:52:30.016Z,195.50
2023-05-22T01:55:13.552Z,195.76
2023-05-22T01:57:55.062Z,188.92
2023-05-22T02:00:30.288Z,190.51
2023-05-22T02:03:09.893Z,181.50
2023-05-22T02:05:46.738Z,186.03
2023-05-22T02:08:22.184Z,186.54
2023-05-22T02:10:57.843Z,184.87
2023-05-22T02:13:31.678Z,187.08
2023-05-22T02:16:06.326Z,185.00
2023-05-22T02:18:41.968Z,190.24
2023-05-22T02:21:15.514Z,187.21
2023-05-22T02:23:48.764Z,183.90
2023-05-22T02:26:21.952Z,186.61
2023-05-22T02:28:56.167Z,179.73
2023-05-22T02:31:29.480Z,184.32
2023-05-22T02:34:05.511Z,183.89
2023-05-22T02:36:39.820Z,186.08
2023-05-22T02:39:13.109Z,182.00
2023-05-22T02:41:48.831Z,181.96
2023-05-22T02:44:22.092Z,184.02
2023-05-22T02:46:55.383Z,183.71
2023-05-22T02:49:30.057Z,183.14
2023-05-22T02:52:06.001Z,181.40
2023-05-22T02:54:39.192Z,178.70
2023-05-22T02:57:12.396Z,177.06
2023-05-22T02:59:45.727Z,179.25
2023-05-22T03:02:20.036Z,178.47
2023-05-22T03:04:59.158Z,175.59
2023-05-22T03:07:32.509Z,181.19
2023-05-22T03:10:06.976Z,185.44
2023-05-22T03:12:42.401Z,185.91
2023-05-22T03:15:18.369Z,189.81
2023-05-22T03:17:51.658Z,185.83
2023-05-22T03:20:26.503Z,188.31
2023-05-22T03:22:59.679Z,184.04
2023-05-22T03:25:32.876Z,187.91
2023-05-22T03:28:06.358Z,181.98
2023-05-22T03:30:43.628Z,188.15
2023-05-22T03:33:27.692Z,189.91
2023-05-22T03:36:03.628Z,189.38
2023-05-22T03:38:36.815Z,190.43
2023-05-22T03:41:10.024Z,203.00
2023-05-22T03:43:44.997Z,201.93
2023-05-22T03:46:18.997Z,204.42
2023-05-22T03:48:52.445Z,208.36
2023-05-22T03:51:27.018Z,201.96
2023-05-22T03:54:00.280Z,206.14
2023-05-22T03:56:33.432Z,210.57
2023-05-22T03:59:06.562Z,211.20
2023-05-22T04:01:40.103Z,215.97
2023-05-22T04:04:13.588Z,215.29
2023-05-22T04:06:48.287Z,215.77
2023-05-22T04:09:21.530Z,221.49
2023-05-22T04:11:56.153Z,221.19
2023-05-22T04:14:29.544Z,226.96
2023-05-22T04:17:02.768Z,226.75
2023-05-22T04:19:36.365Z,234.06
2023-05-22T04:22:10.913Z,243.93
2023-05-22T04:24:44.121Z,248.59
2023-05-22T04:27:17.501Z,247.86
2023-05-22T04:29:51.443Z,249.90
2023-05-22T04:32:24.636Z,252.40
2023-05-22T04:35:00.569Z,244.34
2023-05-22T04:37:35.837Z,248.06
2023-05-22T04:40:10.181Z,264.38
2023-05-22T04:42:44.686Z,279.36
2023-05-22T04:45:19.425Z,292.37
2023-05-22T04:47:53.608Z,305.96
2023-05-22T04:50:27.203Z,320.97
2023-05-22T04:53:04.294Z,326.45
2023-05-22T04:55:37.628Z,316.60
2023-05-22T04:58:10.820Z,315.82
2023-05-22T05:00:44.557Z,315.82
2023-05-22T05:03:18.285Z,326.31
2023-05-22T05:05:51.556Z,325.50
2023-05-22T05:08:26.219Z,315.70
2023-05-22T05:10:59.883Z,319.55
2023-05-22T05:13:33.100Z,335.99
2023-05-22T05:16:06.849Z,331.77
2023-05-22T05:18:40.068Z,337.14
2023-05-22T05:21:13.187Z,334.58
2023-05-22T05:23:47.805Z,330.28
2023-05-22T05:26:21.750Z,320.99
2023-05-22T05:28:56.724Z,317.66
2023-05-22T05:31:34.149Z,334.52
2023-05-22T05:34:27.668Z,344.46
2023-05-22T05:37:24.595Z,341.67
2023-05-22T05:40:00.308Z,341.02
2023-05-22T05:42:33.593Z,346.43
2023-05-22T05:45:09.859Z,346.29
2023-05-22T05:47:43.508Z,349.59
2023-05-22T05:50:17.274Z,361.01
2023-05-22T05:52:50.565Z,359.74
2023-05-22T05:55:26.938Z,370.29
2023-05-22T05:58:01.181Z,360.09
2023-05-22T06:00:45.451Z,352.66
2023-05-22T06:03:18.983Z,355.89
2023-05-22T06:06:07.387Z,353.81
2023-05-22T06:09:16.406Z,350.07
2023-05-22T06:12:12.801Z,364.16
2023-05-22T06:14:49.384Z,348.71
2023-05-22T06:17:22.855Z,353.46
2023-05-22T06:19:56.564Z,357.55
2023-05-22T06:22:30.547Z,354.62
2023-05-22T06:25:05.403Z,361.27
2023-05-22T06:27:41.642Z,344.12
2023-05-22T06:30:18.451Z,329.67
2023-05-22T06:32:58.961Z,340.30
2023-05-22T06:35:32.837Z,333.93
2023-05-22T06:38:06.027Z,335.42
2023-05-22T06:40:40.960Z,343.11
2023-05-22T06:43:21.497Z,344.37
2023-05-22T06:46:05.603Z,340.45
2023-05-22T06:48:54.360Z,332.43
2023-05-22T06:51:32.720Z,320.46
2023-05-22T06:54:14.100Z,324.72
2023-05-22T06:56:50.850Z,321.22
2023-05-22T06:59:26.071Z,325.68
2023-05-22T07:02:11.328Z,329.96
2023-05-22T07:05:02.968Z,329.01
2023-05-22T07:07:49.582Z,318.15
2023-05-22T07:10:25.091Z,322.18
2023-05-22T07:12:58.870Z,320.61
2023-05-22T07:15:33.480Z,329.17
2023-05-22T07:18:09.752Z,324.37
2023-05-22T07:20:46.624Z,330.87
2023-05-22T07:23:26.196Z,332.20
2023-05-22T07:25:59.724Z,336.54
2023-05-22T07:28:38.910Z,343.32
2023-05-22T07:31:20.176Z,348.32
2023-05-22T07:33:54.756Z,348.39
2023-05-22T07:36:27.967Z,366.98
2023-05-22T07:39:01.298Z,387.19
2023-05-22T07:41:34.632Z,405.38
2023-05-22T07:44:08.294Z,403.48
2023-05-22T07:46:45.615Z,416.98
2023-05-22T07:49:24.325Z,424.14
2023-05-22T07:51:57.780Z,419.78
2023-05-22T07:54:32.257Z,423.81
2023-05-22T07:57:05.647Z,436.50
2023-05-22T07:59:44.086Z,441.40
2023-05-22T08:02:18.797Z,441.43
2023-05-22T08:04:52.015Z,452.89
2023-05-22T08:07:25.267Z,446.02
2023-05-22T08:09:58.455Z,451.81
2023-05-22T08:12:31.630Z,460.79
2023-05-22T08:15:05.461Z,459.01
2023-05-22T08:17:40.326Z,459.57
2023-05-22T08:20:14.122Z,450.96
2023-05-22T08:22:47.388Z,442.85
2023-05-22T08:25:20.646Z,442.72
2023-05-22T08:27:53.854Z,460.73
2023-05-22T08:30:27.075Z,473.65
2023-05-22T08:33:01.707Z,483.54
2023-05-22T08:35:35.029Z,480.91
2023-05-22T08:38:08.216Z,473.80
2023-05-22T08:40:49.575Z,453.81
2023-05-22T08:43:22.945Z,447.34
2023-05-22T08:46:02.241Z,457.38
2023-05-22T08:48:37.328Z,463.95
2023-05-22T08:51:16.293Z,468.12
2023-05-22T08:53:54.849Z,477.66
2023-05-22T08:56:29.718Z,480.52
2023-05-22T08:59:04.800Z,492.42
2023-05-22T09:01:38.725Z,482.53
2023-05-22T09:04:14.507Z,481.49
2023-05-22T09:06:48.761Z,493.13
2023-05-22T09:09:22.028Z,497.05
2023-05-22T09:11:56.361Z,488.37
2023-05-22T09:14:31.288Z,489.21
2023-05-22T09:17:04.507Z,500.26
2023-05-22T09:19:40.290Z,487.69
2023-05-22T09:22:14.486Z,478.48
2023-05-22T09:24:47.998Z,474.49
2023-05-22T09:27:25.108Z,481.92
2023-05-22T09:29:58.916Z,493.10
2023-05-22T09:32:32.631Z,506.95
2023-05-22T09:35:08.162Z,498.66
2023-05-22T09:37:42.468Z,502.09
2023-05-22T09:40:15.659Z,484.03
2023-05-22T09:42:48.884Z,489.51
2023-05-22T09:45:24.163Z,488.23
2023-05-22T09:47:57.960Z,481.19
2023-05-22T09:50:32.852Z,484.68
2023-05-22T09:53:06.840Z,473.10
2023-05-22T09:55:41.148Z,475.28
2023-05-22T09:58:17.279Z,468.28
2023-05-22T10:00:52.089Z,484.05
2023-05-22T10:03:27.586Z,476.04
2023-05-22T10:06:03.980Z,479.37
2023-05-22T10:08:44.430Z,472.68
2023-05-22T10:11:18.661Z,473.88
2023-05-22T10:13:52.940Z,463.40
2023-05-22T10:16:27.710Z,454.50
2023-05-22T10:19:02.419Z,462.23
2023-05-22T10:21:37.952Z,444.27
2023-05-22T10:24:11.464Z,451.96
2023-05-22T10:26:45.820Z,446.96
2023-05-22T10:29:26.622Z,454.28
2023-05-22T10:32:07.755Z,454.43
2023-05-22T10:34:58.646Z,458.38
2023-05-22T10:37:49.903Z,460.09
2023-05-22T10:40:30.458Z,452.29
2023-05-22T10:43:05.107Z,458.66
2023-05-22T10:45:38.301Z,448.83
2023-05-22T10:48:13.252Z,440.81
2023-05-22T10:50:53.648Z,442.47
2023-05-22T10:53:32.381Z,447.27
2023-05-22T10:56:13.592Z,441.14
2023-05-22T10:58:57.726Z,442.35
2023-05-22T11:01:31.009Z,452.06
2023-05-22T11:04:12.938Z,444.20
2023-05-22T11:06:50.850Z,451.24
2023-05-22T11:09:31.714Z,448.17
2023-05-22T11:12:17.506Z,444.40
2023-05-22T11:14:53.058Z,438.17
2023-05-22T11:17:29.167Z,456.85
2023-05-22T11:20:05.982Z,459.69
2023-05-22T11:22:43.173Z,454.19
2023-05-22T11:25:20.188Z,450.13
2023-05-22T11:27:56.169Z,460.46
2023-05-22T11:30:30.920Z,447.20
2023-05-22T11:33:04.681Z,453.53
2023-05-22T11:35:40.917Z,447.00
2023-05-22T11:38:15.880Z,449.62
2023-05-22T11:40:53.252Z,459.72
2023-05-22T11:43:33.146Z,451.95
2023-05-22T11:46:11.582Z,464.95
2023-05-22T11:48:44.792Z,457.53
2023-05-22T11:51:21.331Z,450.94
2023-05-22T11:53:55.173Z,458.61
2023-05-22T11:56:29.773Z,455.06
2023-05-22T11:59:04.022Z,449.01
2023-05-22T12:01:37.266Z,445.68
2023-05-22T12:04:10.507Z,459.10
2023-05-22T12:06:43.928Z,484.43
2023-05-22T12:09:17.111Z,488.82
2023-05-22T12:11:51.921Z,477.63
2023-05-22T12:14:27.664Z,469.26
2023-05-22T12:17:01.330Z,458.04
2023-05-22T12:19:34.541Z,461.53
2023-05-22T12:22:08.210Z,468.26
2023-05-22T12:24:44.101Z,457.59
2023-05-22T12:27:18.655Z,452.89
2023-05-22T12:29:52.913Z,456.53
2023-05-22T12:32:27.097Z,447.44
2023-05-22T12:35:00.711Z,444.53
2023-05-22T12:37:35.664Z,448.14
2023-05-22T12:40:10.578Z,464.84
2023-05-22T12:42:45.850Z,462.79
2023-05-22T12:45:19.219Z,483.49
2023-05-22T12:47:52.409Z,493.51
2023-05-22T12:50:25.941Z,482.15
2023-05-22T12:52:59.225Z,483.00
2023-05-22T12:55:32.437Z,469.93
2023-05-22T12:58:07.222Z,474.56
2023-05-22T13:00:40.708Z,475.43
2023-05-22T13:03:14.250Z,454.97
2023-05-22T13:05:47.349Z,468.09
2023-05-22T13:08:20.500Z,477.13
2023-05-22T13:10:53.677Z,466.19
2023-05-22T13:13:28.177Z,466.74
2023-05-22T13:16:01.318Z,483.68
2023-05-22T13:18:34.487Z,487.84
2023-05-22T13:21:07.669Z,483.54
2023-05-22T13:23:41.066Z,488.42
2023-05-22T13:26:14.197Z,482.93
2023-05-22T13:28:48.752Z,483.95
2023-05-22T13:31:22.025Z,489.46
2023-05-22T13:33:55.269Z,493.13
2023-05-22T13:36:28.492Z,499.18
2023-05-22T13:39:01.738Z,484.50
2023-05-22T13:41:35.101Z,496.82
2023-05-22T13:44:09.685Z,509.94
2023-05-22T13:46:42.919Z,490.86
2023-05-22T13:49:16.208Z,480.72
2023-05-22T13:51:49.421Z,485.40
2023-05-22T13:54:22.551Z,488.38
2023-05-22T13:56:57.653Z,478.41
2023-05-22T13:59:32.333Z,474.47
2023-05-22T14:02:06.054Z,485.37
2023-05-22T14:04:39.250Z,487.60
2023-05-22T14:07:12.819Z,473.30
2023-05-22T14:09:46.148Z,482.97
2023-05-22T14:12:19.324Z,473.52
2023-05-22T14:14:53.960Z,474.48
2023-05-22T14:17:27.153Z,475.78
2023-05-22T14:20:00.542Z,478.56
2023-05-22T14:22:41.418Z,469.17
2023-05-22T14:25:21.695Z,457.23
2023-05-22T14:27:54.938Z,463.12
2023-05-22T14:30:29.542Z,469.33
2023-05-22T14:33:02.761Z,449.94
2023-05-22T14:35:36.222Z,463.44
2023-05-22T14:38:09.395Z,472.73
2023-05-22T14:40:42.611Z,461.76
2023-05-22T14:43:15.804Z,465.16
2023-05-22T14:45:50.513Z,469.62
2023-05-22T14:48:26.611Z,460.57
2023-05-22T14:51:00.066Z,470.57
2023-05-22T14:53:33.284Z,477.82
2023-05-22T14:56:06.765Z,474.11
2023-05-22T14:58:39.953Z,472.35
2023-05-22T15:01:14.536Z,454.47
2023-05-22T15:03:48.484Z,441.83
2023-05-22T15:06:22.085Z,583.87
2023-05-22T15:08:55.251Z,1031.07
2023-05-22T15:11:28.431Z,552.63
2023-05-22T15:14:01.595Z,2379.59
2023-05-22T15:16:36.187Z,624.48
2023-05-22T15:19:10.311Z,530.77
2023-05-22T15:21:43.534Z,563.99
2023-05-22T15:24:16.780Z,694.23
2023-05-22T15:26:49.927Z,485.11
2023-05-22T15:29:23.185Z,473.56
2023-05-22T15:31:57.801Z,465.00
2023-05-22T15:34:31.357Z,472.66
2023-05-22T15:37:04.603Z,470.34
2023-05-22T15:39:37.748Z,457.00
2023-05-22T15:42:11.054Z,474.43
2023-05-22T15:44:44.277Z,450.22
2023-05-22T15:47:18.803Z,440.71
2023-05-22T15:49:51.959Z,447.75
2023-05-22T15:52:25.310Z,462.70
2023-05-22T15:54:58.892Z,453.04
2023-05-22T15:57:32.445Z,433.01
2023-05-22T16:00:06.844Z,432.96
2023-05-22T16:02:41.421Z,423.27
2023-05-22T16:05:14.608Z,424.36
2023-05-22T16:07:47.818Z,444.03
2023-05-22T16:10:21.633Z,461.95
2023-05-22T16:12:54.797Z,422.63
2023-05-22T16:15:27.962Z,414.06
2023-05-22T16:18:02.588Z,460.47
2023-05-22T16:20:36.885Z,399.14
2023-05-22T16:23:10.137Z,391.57
2023-05-22T16:25:43.356Z,367.96
2023-05-22T16:28:17.213Z,363.69
2023-05-22T16:30:50.472Z,357.61
2023-05-22T16:33:25.077Z,355.80
2023-05-22T16:35:58.348Z,338.94
2023-05-22T16:38:31.539Z,341.95
2023-05-22T16:41:04.809Z,326.39
2023-05-22T16:43:38.378Z,402.09
2023-05-22T16:46:11.649Z,327.69
2023-05-22T16:48:46.332Z,334.90
2023-05-22T16:51:19.766Z,324.38
2023-05-22T16:53:52.947Z,320.24
2023-05-22T16:56:26.393Z,324.47
2023-05-22T16:58:59.612Z,319.90
2023-05-22T17:01:32.936Z,303.02
2023-05-22T17:04:07.588Z,319.71
2023-05-22T17:06:41.327Z,329.36
2023-05-22T17:09:16.916Z,333.60
2023-05-22T17:11:50.131Z,341.16
2023-05-22T17:14:23.532Z,350.84
2023-05-22T17:16:57.054Z,357.10
2023-05-22T17:19:32.404Z,368.80
2023-05-22T17:22:06.128Z,383.88
2023-05-22T17:24:39.386Z,378.37
2023-05-22T17:29:45.895Z,380.08
2023-05-22T17:32:19.158Z,384.03
2023-05-22T17:34:53.836Z,376.07
2023-05-22T17:37:27.054Z,378.61
2023-05-22T17:40:00.416Z,377.39
2023-05-22T17:42:33.721Z,374.84
2023-05-22T17:45:08.175Z,366.80
2023-05-22T17:47:41.432Z,368.60
2023-05-22T17:50:16.174Z,369.80
2023-05-22T17:52:49.586Z,368.73
2023-05-22T17:55:22.862Z,362.45
2023-05-22T17:57:56.234Z,361.10
2023-05-22T18:00:29.487Z,348.43
2023-05-22T18:03:05.128Z,347.10
2023-05-22T18:05:40.181Z,336.85
2023-05-22T18:08:13.354Z,327.14
2023-05-22T18:10:46.613Z,320.33
2023-05-22T18:13:20.282Z,324.03
2023-05-22T18:15:54.368Z,324.65
2023-05-22T18:18:27.831Z,317.11
2023-05-22T18:21:03.338Z,313.50
2023-05-22T18:23:36.577Z,313.34
2023-05-22T18:26:10.150Z,318.74
2023-05-22T18:28:43.300Z,306.76
2023-05-22T18:31:16.725Z,298.97
2023-05-22T18:33:49.889Z,297.57
2023-05-22T18:36:24.558Z,287.54
2023-05-22T18:38:57.759Z,292.66
2023-05-22T18:41:31.065Z,290.45
2023-05-22T18:44:04.676Z,286.37
2023-05-22T18:46:37.957Z,277.63
2023-05-22T18:49:11.188Z,272.37
2023-05-22T18:51:45.856Z,268.25
2023-05-22T18:54:19.160Z,270.58
2023-05-22T18:56:52.896Z,266.05
2023-05-22T18:59:28.494Z,260.60
2023-05-22T19:02:01.729Z,258.95
2023-05-22T19:04:34.903Z,264.60
2023-05-22T19:07:09.530Z,253.44
2023-05-22T19:09:44.960Z,254.76
2023-05-22T19:12:18.252Z,259.36
2023-05-22T19:14:52.566Z,255.12
2023-05-22T19:17:26.127Z,262.15
2023-05-22T19:19:59.363Z,256.70
2023-05-22T19:22:34.016Z,257.28
2023-05-22T19:25:07.915Z,258.42
2023-05-22T19:27:41.080Z,260.74
2023-05-22T19:30:16.521Z,255.65
2023-05-22T19:32:50.914Z,256.26
2023-05-22T19:35:24.296Z,256.89
2023-05-22T19:37:58.888Z,257.30
2023-05-22T19:40:32.025Z,250.16
2023-05-22T19:43:05.294Z,259.47
2023-05-22T19:45:41.043Z,258.28
2023-05-22T19:48:14.957Z,250.16
2023-05-22T19:50:48.124Z,255.02
2023-05-22T19:53:22.696Z,255.54
2023-05-22T19:56:03.032Z,254.42
2023-05-22T19:58:36.212Z,252.85
2023-05-22T20:01:09.358Z,257.08
2023-05-22T20:03:42.648Z,256.58
2023-05-22T20:06:16.153Z,265.42
2023-05-22T20:08:50.739Z,255.99
2023-05-22T20:11:23.931Z,256.67
2023-05-22T20:13:57.175Z,258.56
2023-05-22T20:16:30.454Z,259.65
2023-05-22T20:19:04.020Z,258.20
2023-05-22T20:21:37.322Z,251.45
2023-05-22T20:24:18.966Z,262.87
2023-05-22T20:26:52.871Z,262.67
2023-05-22T20:29:26.038Z,265.52
2023-05-22T20:31:59.369Z,281.41
2023-05-22T20:34:32.578Z,279.94
2023-05-22T20:37:08.900Z,270.29
2023-05-22T20:39:44.322Z,273.55
2023-05-22T20:42:18.278Z,277.18
2023-05-22T20:44:53.868Z,286.36
2023-05-22T20:47:27.161Z,291.19
2023-05-22T20:50:00.326Z,293.55
2023-05-22T20:52:33.755Z,304.25
2023-05-22T20:55:09.252Z,317.39
2023-05-22T20:57:42.445Z,318.09
2023-05-22T21:00:15.840Z,318.98
2023-05-22T21:02:49.025Z,319.34
2023-05-22T21:05:22.397Z,326.68
2023-05-22T21:07:55.506Z,325.96
2023-05-22T21:10:30.034Z,321.53
2023-05-22T21:13:03.118Z,324.75
2023-05-22T21:15:36.586Z,332.92
2023-05-22T21:18:09.857Z,330.37
2023-05-22T21:20:43.119Z,333.45
2023-05-22T21:23:16.318Z,332.37
2023-05-22T21:25:50.906Z,334.63
2023-05-22T21:28:24.095Z,344.63
2023-05-22T21:30:57.356Z,340.87
2023-05-22T21:33:30.487Z,343.11
2023-05-22T21:36:03.741Z,344.46
2023-05-22T21:38:36.865Z,350.13
2023-05-22T21:41:11.779Z,352.98
2023-05-22T21:43:45.623Z,360.59
2023-05-22T21:46:18.854Z,360.81
2023-05-22T21:48:53.621Z,376.62
2023-05-22T21:51:26.881Z,385.06
2023-05-22T21:54:00.148Z,387.73
2023-05-22T21:56:34.744Z,391.04
2023-05-22T21:59:08.017Z,387.23
2023-05-22T22:01:41.356Z,386.39
2023-05-22T22:04:14.540Z,402.50
2023-05-22T22:06:47.766Z,407.70
2023-05-22T22:09:20.919Z,408.48
2023-05-22T22:11:55.634Z,429.65
2023-05-22T22:14:28.812Z,425.61
2023-05-22T22:17:02.003Z,430.53
2023-05-22T22:19:36.079Z,421.85
2023-05-22T22:22:09.697Z,424.50
2023-05-22T22:24:42.947Z,433.41
2023-05-22T22:27:17.665Z,428.56
2023-05-22T22:29:50.834Z,429.24
2023-05-22T22:32:24.036Z,432.32
2023-05-22T22:34:57.217Z,428.94
2023-05-22T22:37:31.169Z,437.57
2023-05-22T22:40:05.290Z,438.71
2023-05-22T22:42:39.876Z,436.91
2023-05-22T22:45:14.705Z,452.62
2023-05-22T22:47:48.299Z,458.76
2023-05-22T22:50:21.518Z,450.33
2023-05-22T22:52:54.806Z,458.07
2023-05-22T22:55:28.104Z,455.60
2023-05-22T22:58:03.023Z,444.11
2023-05-22T23:00:38.568Z,457.74
2023-05-22T23:03:11.741Z,468.42
2023-05-22T23:05:45.306Z,475.19
2023-05-22T23:08:18.680Z,472.04
2023-05-22T23:10:51.823Z,465.51
2023-05-22T23:13:26.402Z,476.72
2023-05-22T23:15:59.614Z,483.08
2023-05-22T23:18:32.800Z,485.24
2023-05-22T23:21:06.560Z,482.45
2023-05-22T23:23:39.731Z,469.70
2023-05-22T23:26:12.871Z,469.31
2023-05-22T23:28:47.436Z,456.37
2023-05-22T23:31:26.087Z,441.26
2023-05-22T23:34:00.036Z,432.65
2023-05-22T23:36:33.666Z,426.53
2023-05-22T23:39:06.892Z,428.80
2023-05-22T23:41:40.521Z,421.74
2023-05-22T23:44:15.134Z,423.45
2023-05-22T23:46:48.744Z,423.61
2023-05-22T23:49:22.277Z,408.21
2023-05-22T23:51:55.476Z,405.37
2023-05-22T23:54:28.799Z,376.93
2023-05-22T23:57:01.934Z,379.04
2023-05-22T23:59:36.458Z,333.97
